sensor_id;sensor_type;location;lat;lon;timestamp;temperature;humidity
8633;DHT22;4354;49.832;10.746;2022-12-11T00:00:49;-1.50;99.90
8633;DHT22;4354;49.832;10.746;2022-12-11T00:03:16;-1.50;99.90
8633;DHT22;4354;49.832;10.746;2022-12-11T00:05:44;-1.40;99.90
8633;DHT22;4354;49.832;10.746;2022-12-11T00:08:11;-1.40;99.90
8633;DHT22;4354;49.832;10.746;2022-12-11T00:10:38;-1.40;99.90
8633;DHT22;4354;49.832;10.746;2022-12-11T00:13:05;-1.40;99.90
8633;DHT22;4354;49.832;10.746;2022-12-11T00:15:32;-1.40;99.90
8633;DHT22;4354;49.832;10.746;2022-12-11T00:17:59;-1.30;99.90
8633;DHT22;4354;49.832;10.746;2022-12-11T00:20:25;-1.10;99.90
8633;DHT22;4354;49.832;10.746;2022-12-11T00:22:52;-1.30;99.90
8633;DHT22;4354;49.832;10.746;2022-12-11T00:25:19;-1.20;99.90
8633;DHT22;4354;49.832;10.746;2022-12-11T00:27:46;-1.20;99.90
8633;DHT22;4354;49.832;10.746;2022-12-11T00:30:13;-1.20;99.90
8633;DHT22;4354;49.832;10.746;2022-12-11T00:32:40;-1.10;99.90
8633;DHT22;4354;49.832;10.746;2022-12-11T00:35:07;-1.10;99.90
8633;DHT22;4354;49.832;10.746;2022-12-11T00:37:34;-1.10;99.90
8633;DHT22;4354;49.832;10.746;2022-12-11T00:40:01;-1.10;99.90
8633;DHT22;4354;49.832;10.746;2022-12-11T00:42:28;-1.10;99.90
8633;DHT22;4354;49.832;10.746;2022-12-11T00:44:55;-1.00;99.90
8633;DHT22;4354;49.832;10.746;2022-12-11T00:47:22;-1.10;99.90
8633;DHT22;4354;49.832;10.746;2022-12-11T00:49:48;-1.00;99.90
8633;DHT22;4354;49.832;10.746;2022-12-11T00:52:16;-1.00;99.90
8633;DHT22;4354;49.832;10.746;2022-12-11T00:54:43;-1.10;99.90
8633;DHT22;4354;49.832;10.746;2022-12-11T00:57:10;-1.10;99.90
8633;DHT22;4354;49.832;10.746;2022-12-11T00:59:37;-1.10;99.90
8633;DHT22;4354;49.832;10.746;2022-12-11T01:02:04;-1.10;99.90
8633;DHT22;4354;49.832;10.746;2022-12-11T01:04:31;-1.20;99.90
8633;DHT22;4354;49.832;10.746;2022-12-11T01:07:00;-1.30;99.90
8633;DHT22;4354;49.832;10.746;2022-12-11T01:09:27;-1.30;99.90
8633;DHT22;4354;49.832;10.746;2022-12-11T01:12:12;-1.40;99.90
8633;DHT22;4354;49.832;10.746;2022-12-11T01:14:39;-1.50;99.90
8633;DHT22;4354;49.832;10.746;2022-12-11T01:17:06;-1.50;99.90
8633;DHT22;4354;49.832;10.746;2022-12-11T01:19:33;-1.60;99.90
8633;DHT22;4354;49.832;10.746;2022-12-11T01:21:59;-1.70;99.90
8633;DHT22;4354;49.832;10.746;2022-12-11T01:24:26;-1.80;99.90
8633;DHT22;4354;49.832;10.746;2022-12-11T01:26:53;-1.80;99.90
8633;DHT22;4354;49.832;10.746;2022-12-11T01:29:19;-1.80;99.90
8633;DHT22;4354;49.832;10.746;2022-12-11T01:31:46;-1.80;99.90
8633;DHT22;4354;49.832;10.746;2022-12-11T01:34:14;-1.80;99.90
8633;DHT22;4354;49.832;10.746;2022-12-11T01:36:41;-1.80;99.90
8633;DHT22;4354;49.832;10.746;2022-12-11T01:39:07;-1.80;99.90
8633;DHT22;4354;49.832;10.746;2022-12-11T01:41:34;-1.80;99.90
8633;DHT22;4354;49.832;10.746;2022-12-11T01:46:41;-1.70;99.90
8633;DHT22;4354;49.832;10.746;2022-12-11T01:49:11;-1.60;99.90
8633;DHT22;4354;49.832;10.746;2022-12-11T01:51:48;-1.60;99.90
8633;DHT22;4354;49.832;10.746;2022-12-11T01:54:19;-1.60;99.90
8633;DHT22;4354;49.832;10.746;2022-12-11T01:56:48;-1.60;99.90
8633;DHT22;4354;49.832;10.746;2022-12-11T01:59:21;-1.20;99.90
8633;DHT22;4354;49.832;10.746;2022-12-11T02:02:00;-1.70;99.90
8633;DHT22;4354;49.832;10.746;2022-12-11T02:04:28;-1.80;99.90
8633;DHT22;4354;49.832;10.746;2022-12-11T02:06:56;-1.80;99.90
8633;DHT22;4354;49.832;10.746;2022-12-11T02:09:28;-1.90;99.90
8633;DHT22;4354;49.832;10.746;2022-12-11T02:14:42;-2.00;99.90
8633;DHT22;4354;49.832;10.746;2022-12-11T02:22:27;-1.80;99.90
8633;DHT22;4354;49.832;10.746;2022-12-11T02:27:31;-1.80;99.90
8633;DHT22;4354;49.832;10.746;2022-12-11T02:30:08;-1.80;99.90
8633;DHT22;4354;49.832;10.746;2022-12-11T02:32:44;-1.80;99.90
8633;DHT22;4354;49.832;10.746;2022-12-11T02:35:30;-1.80;99.90
8633;DHT22;4354;49.832;10.746;2022-12-11T02:38:03;-1.80;99.90
8633;DHT22;4354;49.832;10.746;2022-12-11T02:40:33;-1.80;99.90
8633;DHT22;4354;49.832;10.746;2022-12-11T02:43:05;-1.70;99.90
8633;DHT22;4354;49.832;10.746;2022-12-11T02:45:33;-1.70;99.90
8633;DHT22;4354;49.832;10.746;2022-12-11T02:48:03;-1.70;99.90
8633;DHT22;4354;49.832;10.746;2022-12-11T02:50:32;-1.60;99.90
8633;DHT22;4354;49.832;10.746;2022-12-11T02:53:02;-1.70;99.90
8633;DHT22;4354;49.832;10.746;2022-12-11T02:55:31;-1.60;99.90
8633;DHT22;4354;49.832;10.746;2022-12-11T02:58:11;-1.70;99.90
8633;DHT22;4354;49.832;10.746;2022-12-11T03:00:38;-1.70;99.90
8633;DHT22;4354;49.832;10.746;2022-12-11T03:03:05;-1.70;99.90
8633;DHT22;4354;49.832;10.746;2022-12-11T03:05:32;-1.80;99.90
8633;DHT22;4354;49.832;10.746;2022-12-11T03:08:00;-1.90;99.90
8633;DHT22;4354;49.832;10.746;2022-12-11T03:10:27;-2.00;99.90
8633;DHT22;4354;49.832;10.746;2022-12-11T03:12:55;-2.00;99.90
8633;DHT22;4354;49.832;10.746;2022-12-11T03:15:32;-2.10;99.90
8633;DHT22;4354;49.832;10.746;2022-12-11T03:18:10;-2.20;99.90
8633;DHT22;4354;49.832;10.746;2022-12-11T03:20:49;-2.10;99.90
8633;DHT22;4354;49.832;10.746;2022-12-11T03:26:03;-2.00;99.90
8633;DHT22;4354;49.832;10.746;2022-12-11T03:28:40;-1.90;99.90
8633;DHT22;4354;49.832;10.746;2022-12-11T03:33:59;-1.90;99.90
8633;DHT22;4354;49.832;10.746;2022-12-11T03:36:31;-1.80;99.90
8633;DHT22;4354;49.832;10.746;2022-12-11T03:39:16;-1.90;99.90
8633;DHT22;4354;49.832;10.746;2022-12-11T03:41:45;-1.90;99.90
8633;DHT22;4354;49.832;10.746;2022-12-11T03:44:15;-1.90;99.90
8633;DHT22;4354;49.832;10.746;2022-12-11T03:46:43;-1.90;99.90
8633;DHT22;4354;49.832;10.746;2022-12-11T03:49:21;-1.90;99.90
8633;DHT22;4354;49.832;10.746;2022-12-11T03:51:51;-1.80;99.90
8633;DHT22;4354;49.832;10.746;2022-12-11T03:54:19;-1.90;99.90
8633;DHT22;4354;49.832;10.746;2022-12-11T03:56:49;-1.90;99.90
8633;DHT22;4354;49.832;10.746;2022-12-11T03:59:16;-1.90;99.90
8633;DHT22;4354;49.832;10.746;2022-12-11T04:01:43;-2.00;99.90
8633;DHT22;4354;49.832;10.746;2022-12-11T04:04:10;-2.00;99.90
8633;DHT22;4354;49.832;10.746;2022-12-11T04:06:37;-2.00;99.90
8633;DHT22;4354;49.832;10.746;2022-12-11T04:09:04;-2.00;99.90
8633;DHT22;4354;49.832;10.746;2022-12-11T04:11:30;-2.00;99.90
8633;DHT22;4354;49.832;10.746;2022-12-11T04:14:05;-2.00;99.90
8633;DHT22;4354;49.832;10.746;2022-12-11T04:16:51;-2.00;99.90
8633;DHT22;4354;49.832;10.746;2022-12-11T04:19:18;-2.00;99.90
8633;DHT22;4354;49.832;10.746;2022-12-11T04:22:04;-2.00;99.90
8633;DHT22;4354;49.832;10.746;2022-12-11T04:24:50;-2.00;99.90
8633;DHT22;4354;49.832;10.746;2022-12-11T04:27:18;-1.90;99.90
8633;DHT22;4354;49.832;10.746;2022-12-11T04:30:09;-1.90;99.90
8633;DHT22;4354;49.832;10.746;2022-12-11T04:32:36;-1.80;99.90
8633;DHT22;4354;49.832;10.746;2022-12-11T04:35:04;-1.80;99.90
8633;DHT22;4354;49.832;10.746;2022-12-11T04:37:31;-1.80;99.90
8633;DHT22;4354;49.832;10.746;2022-12-11T04:39:58;-1.70;99.90
8633;DHT22;4354;49.832;10.746;2022-12-11T04:42:25;-1.70;99.90
8633;DHT22;4354;49.832;10.746;2022-12-11T04:44:52;-1.70;99.90
8633;DHT22;4354;49.832;10.746;2022-12-11T04:47:18;-1.70;99.90
8633;DHT22;4354;49.832;10.746;2022-12-11T04:49:45;-1.60;99.90
8633;DHT22;4354;49.832;10.746;2022-12-11T04:52:12;-1.60;99.90
8633;DHT22;4354;49.832;10.746;2022-12-11T04:54:39;-1.60;99.90
8633;DHT22;4354;49.832;10.746;2022-12-11T04:57:05;-1.60;99.90
8633;DHT22;4354;49.832;10.746;2022-12-11T04:59:32;-1.50;99.90
8633;DHT22;4354;49.832;10.746;2022-12-11T05:01:59;-1.50;99.90
8633;DHT22;4354;49.832;10.746;2022-12-11T05:04:30;-1.50;99.90
8633;DHT22;4354;49.832;10.746;2022-12-11T05:06:58;-1.50;99.90
8633;DHT22;4354;49.832;10.746;2022-12-11T05:09:25;-1.50;99.90
8633;DHT22;4354;49.832;10.746;2022-12-11T05:11:53;-1.60;99.90
8633;DHT22;4354;49.832;10.746;2022-12-11T05:14:20;-1.50;99.90
8633;DHT22;4354;49.832;10.746;2022-12-11T05:16:47;-1.60;99.90
8633;DHT22;4354;49.832;10.746;2022-12-11T05:19:14;-1.60;99.90
8633;DHT22;4354;49.832;10.746;2022-12-11T05:21:41;-1.60;99.90
8633;DHT22;4354;49.832;10.746;2022-12-11T05:24:08;-1.70;99.90
8633;DHT22;4354;49.832;10.746;2022-12-11T05:26:34;-1.80;99.90
8633;DHT22;4354;49.832;10.746;2022-12-11T05:29:01;-2.00;99.90
8633;DHT22;4354;49.832;10.746;2022-12-11T05:31:28;-2.10;99.90
8633;DHT22;4354;49.832;10.746;2022-12-11T05:33:55;-2.20;99.90
8633;DHT22;4354;49.832;10.746;2022-12-11T05:36:24;-2.30;99.90
8633;DHT22;4354;49.832;10.746;2022-12-11T05:38:52;-2.40;99.90
8633;DHT22;4354;49.832;10.746;2022-12-11T05:41:22;-2.60;99.90
8633;DHT22;4354;49.832;10.746;2022-12-11T05:43:49;-2.70;99.90
8633;DHT22;4354;49.832;10.746;2022-12-11T05:46:21;-2.80;99.90
8633;DHT22;4354;49.832;10.746;2022-12-11T05:48:51;-2.90;99.90
8633;DHT22;4354;49.832;10.746;2022-12-11T05:51:18;-3.00;99.90
8633;DHT22;4354;49.832;10.746;2022-12-11T05:53:47;-3.00;99.90
8633;DHT22;4354;49.832;10.746;2022-12-11T05:56:16;-3.10;99.90
8633;DHT22;4354;49.832;10.746;2022-12-11T05:58:44;-3.20;99.90
8633;DHT22;4354;49.832;10.746;2022-12-11T06:01:17;-3.20;99.90
8633;DHT22;4354;49.832;10.746;2022-12-11T06:03:44;-3.20;99.90
8633;DHT22;4354;49.832;10.746;2022-12-11T06:06:11;-3.30;99.90
8633;DHT22;4354;49.832;10.746;2022-12-11T06:08:38;-3.40;99.90
8633;DHT22;4354;49.832;10.746;2022-12-11T06:11:05;-3.40;99.90
8633;DHT22;4354;49.832;10.746;2022-12-11T06:13:33;-3.50;99.90
8633;DHT22;4354;49.832;10.746;2022-12-11T06:16:01;-3.50;99.90
8633;DHT22;4354;49.832;10.746;2022-12-11T06:18:28;-3.60;99.90
8633;DHT22;4354;49.832;10.746;2022-12-11T06:20:55;-3.60;99.90
8633;DHT22;4354;49.832;10.746;2022-12-11T06:23:22;-3.60;99.90
8633;DHT22;4354;49.832;10.746;2022-12-11T06:25:49;-3.60;99.90
8633;DHT22;4354;49.832;10.746;2022-12-11T06:28:16;-3.70;99.90
8633;DHT22;4354;49.832;10.746;2022-12-11T06:30:43;-3.80;99.90
8633;DHT22;4354;49.832;10.746;2022-12-11T06:33:10;-3.90;99.90
8633;DHT22;4354;49.832;10.746;2022-12-11T06:35:37;-3.80;99.90
8633;DHT22;4354;49.832;10.746;2022-12-11T06:38:08;-3.70;99.90
8633;DHT22;4354;49.832;10.746;2022-12-11T06:40:36;-3.70;99.90
8633;DHT22;4354;49.832;10.746;2022-12-11T06:43:03;-3.60;99.90
8633;DHT22;4354;49.832;10.746;2022-12-11T06:45:30;-3.60;99.90
8633;DHT22;4354;49.832;10.746;2022-12-11T06:47:57;-3.50;99.90
8633;DHT22;4354;49.832;10.746;2022-12-11T06:50:24;-3.40;99.90
8633;DHT22;4354;49.832;10.746;2022-12-11T06:52:51;-3.30;99.90
8633;DHT22;4354;49.832;10.746;2022-12-11T06:55:18;-3.30;99.90
8633;DHT22;4354;49.832;10.746;2022-12-11T06:57:44;-3.20;99.90
8633;DHT22;4354;49.832;10.746;2022-12-11T07:00:12;-3.20;99.90
8633;DHT22;4354;49.832;10.746;2022-12-11T07:02:39;-3.10;99.90
8633;DHT22;4354;49.832;10.746;2022-12-11T07:05:06;-3.10;99.90
8633;DHT22;4354;49.832;10.746;2022-12-11T07:07:33;-3.00;99.90
8633;DHT22;4354;49.832;10.746;2022-12-11T07:10:00;-2.90;99.90
8633;DHT22;4354;49.832;10.746;2022-12-11T07:12:34;-2.90;99.90
8633;DHT22;4354;49.832;10.746;2022-12-11T07:15:00;-2.90;99.90
8633;DHT22;4354;49.832;10.746;2022-12-11T07:17:28;-2.90;99.90
8633;DHT22;4354;49.832;10.746;2022-12-11T07:19:54;-2.90;99.90
8633;DHT22;4354;49.832;10.746;2022-12-11T07:22:21;-2.80;99.90
8633;DHT22;4354;49.832;10.746;2022-12-11T07:24:48;-2.80;99.90
8633;DHT22;4354;49.832;10.746;2022-12-11T07:27:15;-2.70;99.90
8633;DHT22;4354;49.832;10.746;2022-12-11T07:29:42;-2.60;99.90
8633;DHT22;4354;49.832;10.746;2022-12-11T07:32:08;-2.60;99.90
8633;DHT22;4354;49.832;10.746;2022-12-11T07:34:36;-2.50;99.90
8633;DHT22;4354;49.832;10.746;2022-12-11T07:37:03;-2.40;99.90
8633;DHT22;4354;49.832;10.746;2022-12-11T07:39:30;-2.20;99.90
8633;DHT22;4354;49.832;10.746;2022-12-11T07:41:57;-2.20;99.90
8633;DHT22;4354;49.832;10.746;2022-12-11T07:44:24;-2.00;99.90
8633;DHT22;4354;49.832;10.746;2022-12-11T07:46:51;-2.00;99.90
8633;DHT22;4354;49.832;10.746;2022-12-11T07:49:17;-1.90;99.90
8633;DHT22;4354;49.832;10.746;2022-12-11T07:51:44;-1.90;99.90
8633;DHT22;4354;49.832;10.746;2022-12-11T07:54:13;-1.90;99.90
8633;DHT22;4354;49.832;10.746;2022-12-11T07:56:44;-1.80;99.90
8633;DHT22;4354;49.832;10.746;2022-12-11T07:59:19;-1.90;99.90
8633;DHT22;4354;49.832;10.746;2022-12-11T08:01:46;-1.90;99.90
8633;DHT22;4354;49.832;10.746;2022-12-11T08:04:13;-1.80;99.90
8633;DHT22;4354;49.832;10.746;2022-12-11T08:06:41;-1.80;99.90
8633;DHT22;4354;49.832;10.746;2022-12-11T08:09:11;-1.70;99.90
8633;DHT22;4354;49.832;10.746;2022-12-11T08:11:48;-1.60;99.90
8633;DHT22;4354;49.832;10.746;2022-12-11T08:14:16;-1.50;99.90
8633;DHT22;4354;49.832;10.746;2022-12-11T08:16:43;-1.50;99.90
8633;DHT22;4354;49.832;10.746;2022-12-11T08:19:11;-1.40;99.90
8633;DHT22;4354;49.832;10.746;2022-12-11T08:21:38;-1.30;99.90
8633;DHT22;4354;49.832;10.746;2022-12-11T08:24:06;-1.30;99.90
8633;DHT22;4354;49.832;10.746;2022-12-11T08:26:33;-1.20;99.90
8633;DHT22;4354;49.832;10.746;2022-12-11T08:29:00;-1.20;99.90
8633;DHT22;4354;49.832;10.746;2022-12-11T08:31:28;-1.10;99.90
8633;DHT22;4354;49.832;10.746;2022-12-11T08:33:56;-1.00;99.90
8633;DHT22;4354;49.832;10.746;2022-12-11T08:36:23;-1.10;99.90
8633;DHT22;4354;49.832;10.746;2022-12-11T08:38:51;-1.00;99.90
8633;DHT22;4354;49.832;10.746;2022-12-11T08:41:27;-1.00;99.90
8633;DHT22;4354;49.832;10.746;2022-12-11T08:43:55;-1.00;99.90
8633;DHT22;4354;49.832;10.746;2022-12-11T08:46:25;-1.00;99.90
8633;DHT22;4354;49.832;10.746;2022-12-11T08:48:54;-0.90;99.90
8633;DHT22;4354;49.832;10.746;2022-12-11T08:51:23;-0.80;99.90
8633;DHT22;4354;49.832;10.746;2022-12-11T08:53:50;-0.60;99.90
8633;DHT22;4354;49.832;10.746;2022-12-11T08:56:19;-0.50;99.90
8633;DHT22;4354;49.832;10.746;2022-12-11T08:58:47;-0.40;99.90
8633;DHT22;4354;49.832;10.746;2022-12-11T09:01:19;-0.30;99.90
8633;DHT22;4354;49.832;10.746;2022-12-11T09:03:48;0.00;99.90
8633;DHT22;4354;49.832;10.746;2022-12-11T09:06:17;0.70;99.90
8633;DHT22;4354;49.832;10.746;2022-12-11T09:08:46;1.60;99.90
8633;DHT22;4354;49.832;10.746;2022-12-11T09:11:20;2.10;99.90
8633;DHT22;4354;49.832;10.746;2022-12-11T09:13:48;2.50;99.90
8633;DHT22;4354;49.832;10.746;2022-12-11T09:16:17;3.50;99.90
8633;DHT22;4354;49.832;10.746;2022-12-11T09:18:46;3.90;99.90
8633;DHT22;4354;49.832;10.746;2022-12-11T09:21:15;3.70;99.90
8633;DHT22;4354;49.832;10.746;2022-12-11T09:23:43;3.30;99.90
8633;DHT22;4354;49.832;10.746;2022-12-11T09:26:13;2.80;99.90
8633;DHT22;4354;49.832;10.746;2022-12-11T09:28:41;2.20;99.90
8633;DHT22;4354;49.832;10.746;2022-12-11T09:31:25;1.90;99.90
8633;DHT22;4354;49.832;10.746;2022-12-11T09:33:55;1.40;99.90
8633;DHT22;4354;49.832;10.746;2022-12-11T09:36:22;1.10;99.90
8633;DHT22;4354;49.832;10.746;2022-12-11T09:38:50;0.90;99.90
8633;DHT22;4354;49.832;10.746;2022-12-11T09:41:31;0.70;99.90
8633;DHT22;4354;49.832;10.746;2022-12-11T09:46:34;0.60;99.90
8633;DHT22;4354;49.832;10.746;2022-12-11T09:49:03;0.50;99.90
8633;DHT22;4354;49.832;10.746;2022-12-11T09:51:39;0.40;99.90
8633;DHT22;4354;49.832;10.746;2022-12-11T09:54:10;0.40;99.90
8633;DHT22;4354;49.832;10.746;2022-12-11T09:56:44;0.40;99.90
8633;DHT22;4354;49.832;10.746;2022-12-11T10:05:19;0.20;99.90
8633;DHT22;4354;49.832;10.746;2022-12-11T10:10:27;0.00;99.90
8633;DHT22;4354;49.832;10.746;2022-12-11T10:15:34;-0.20;99.90
8633;DHT22;4354;49.832;10.746;2022-12-11T10:18:07;-0.20;99.90
8633;DHT22;4354;49.832;10.746;2022-12-11T10:20:36;-0.30;99.90
8633;DHT22;4354;49.832;10.746;2022-12-11T10:23:08;-0.40;99.90
8633;DHT22;4354;49.832;10.746;2022-12-11T10:25:39;-0.40;99.90
8633;DHT22;4354;49.832;10.746;2022-12-11T10:28:15;-0.40;99.90
8633;DHT22;4354;49.832;10.746;2022-12-11T10:36:18;-0.40;99.90
8633;DHT22;4354;49.832;10.746;2022-12-11T10:38:46;-0.40;99.90
8633;DHT22;4354;49.832;10.746;2022-12-11T10:41:16;-0.40;99.90
8633;DHT22;4354;49.832;10.746;2022-12-11T10:43:47;-0.20;99.90
8633;DHT22;4354;49.832;10.746;2022-12-11T10:46:20;-0.10;99.90
8633;DHT22;4354;49.832;10.746;2022-12-11T10:48:55;0.00;99.90
8633;DHT22;4354;49.832;10.746;2022-12-11T10:51:24;0.00;99.90
8633;DHT22;4354;49.832;10.746;2022-12-11T10:53:54;0.00;99.90
8633;DHT22;4354;49.832;10.746;2022-12-11T10:56:26;-0.10;99.90
8633;DHT22;4354;49.832;10.746;2022-12-11T10:58:55;-0.20;99.90
8633;DHT22;4354;49.832;10.746;2022-12-11T11:01:25;-0.20;99.90
8633;DHT22;4354;49.832;10.746;2022-12-11T11:04:14;-0.30;99.90
8633;DHT22;4354;49.832;10.746;2022-12-11T11:06:41;-0.30;99.90
8633;DHT22;4354;49.832;10.746;2022-12-11T11:09:30;-0.30;99.90
8633;DHT22;4354;49.832;10.746;2022-12-11T11:11:57;-0.40;99.90
8633;DHT22;4354;49.832;10.746;2022-12-11T11:14:31;-0.30;99.90
8633;DHT22;4354;49.832;10.746;2022-12-11T11:17:00;-0.20;99.90
8633;DHT22;4354;49.832;10.746;2022-12-11T11:19:32;0.20;99.90
8633;DHT22;4354;49.832;10.746;2022-12-11T11:22:13;0.90;99.90
8633;DHT22;4354;49.832;10.746;2022-12-11T11:24:53;1.60;99.90
8633;DHT22;4354;49.832;10.746;2022-12-11T11:27:34;2.30;99.90
8633;DHT22;4354;49.832;10.746;2022-12-11T11:30:06;2.70;99.90
8633;DHT22;4354;49.832;10.746;2022-12-11T11:32:37;3.00;99.90
8633;DHT22;4354;49.832;10.746;2022-12-11T11:37:39;3.10;99.90
8633;DHT22;4354;49.832;10.746;2022-12-11T11:40:26;3.10;99.90
8633;DHT22;4354;49.832;10.746;2022-12-11T11:43:18;3.00;99.90
8633;DHT22;4354;49.832;10.746;2022-12-11T11:48:53;2.30;99.90
8633;DHT22;4354;49.832;10.746;2022-12-11T11:54:49;1.50;99.90
8633;DHT22;4354;49.832;10.746;2022-12-11T12:00:25;0.90;99.90
8633;DHT22;4354;49.832;10.746;2022-12-11T12:03:18;0.80;99.90
8633;DHT22;4354;49.832;10.746;2022-12-11T12:09:05;1.60;99.90
8633;DHT22;4354;49.832;10.746;2022-12-11T12:12:18;2.00;99.90
8633;DHT22;4354;49.832;10.746;2022-12-11T12:14:58;2.20;99.90
8633;DHT22;4354;49.832;10.746;2022-12-11T12:20:49;2.40;99.90
8633;DHT22;4354;49.832;10.746;2022-12-11T12:25:53;2.90;99.90
8633;DHT22;4354;49.832;10.746;2022-12-11T12:28:39;3.10;99.90
8633;DHT22;4354;49.832;10.746;2022-12-11T12:34:04;3.10;99.90
8633;DHT22;4354;49.832;10.746;2022-12-11T12:44:50;2.80;99.90
8633;DHT22;4354;49.832;10.746;2022-12-11T12:47:21;2.40;99.90
8633;DHT22;4354;49.832;10.746;2022-12-11T12:49:50;2.10;99.90
8633;DHT22;4354;49.832;10.746;2022-12-11T12:52:31;1.80;99.90
8633;DHT22;4354;49.832;10.746;2022-12-11T12:55:02;1.50;99.90
8633;DHT22;4354;49.832;10.746;2022-12-11T13:01:14;0.90;99.90
8633;DHT22;4354;49.832;10.746;2022-12-11T13:03:56;0.80;99.90
8633;DHT22;4354;49.832;10.746;2022-12-11T13:09:26;0.70;99.90
8633;DHT22;4354;49.832;10.746;2022-12-11T13:11:55;0.70;99.90
8633;DHT22;4354;49.832;10.746;2022-12-11T13:14:29;0.70;99.90
8633;DHT22;4354;49.832;10.746;2022-12-11T13:19:48;0.70;99.90
8633;DHT22;4354;49.832;10.746;2022-12-11T13:25:16;0.80;99.90
8633;DHT22;4354;49.832;10.746;2022-12-11T13:27:44;0.80;99.90
8633;DHT22;4354;49.832;10.746;2022-12-11T13:33:05;0.80;99.90
8633;DHT22;4354;49.832;10.746;2022-12-11T13:35:34;0.70;99.90
8633;DHT22;4354;49.832;10.746;2022-12-11T13:38:07;0.70;99.90
8633;DHT22;4354;49.832;10.746;2022-12-11T13:40:42;0.60;99.90
8633;DHT22;4354;49.832;10.746;2022-12-11T13:43:22;0.50;99.90
8633;DHT22;4354;49.832;10.746;2022-12-11T13:45:54;0.50;99.90
8633;DHT22;4354;49.832;10.746;2022-12-11T13:48:31;0.40;99.90
8633;DHT22;4354;49.832;10.746;2022-12-11T13:50:59;0.30;99.90
8633;DHT22;4354;49.832;10.746;2022-12-11T13:53:27;0.20;99.90
8633;DHT22;4354;49.832;10.746;2022-12-11T13:56:02;0.10;99.90
8633;DHT22;4354;49.832;10.746;2022-12-11T13:58:33;0.10;99.90
8633;DHT22;4354;49.832;10.746;2022-12-11T14:03:31;-0.10;99.90
8633;DHT22;4354;49.832;10.746;2022-12-11T14:06:00;-0.10;99.90
8633;DHT22;4354;49.832;10.746;2022-12-11T14:08:34;-0.20;99.90
8633;DHT22;4354;49.832;10.746;2022-12-11T14:11:03;-0.30;99.90
8633;DHT22;4354;49.832;10.746;2022-12-11T14:13:36;-0.30;99.90
8633;DHT22;4354;49.832;10.746;2022-12-11T14:16:05;-0.40;99.90
8633;DHT22;4354;49.832;10.746;2022-12-11T14:18:34;-0.50;99.90
8633;DHT22;4354;49.832;10.746;2022-12-11T14:21:04;-0.50;99.90
8633;DHT22;4354;49.832;10.746;2022-12-11T14:23:36;-0.50;99.90
8633;DHT22;4354;49.832;10.746;2022-12-11T14:26:20;-0.50;99.90
8633;DHT22;4354;49.832;10.746;2022-12-11T14:28:47;-0.50;99.90
8633;DHT22;4354;49.832;10.746;2022-12-11T14:34:44;-0.50;99.90
8633;DHT22;4354;49.832;10.746;2022-12-11T14:37:13;-0.50;99.90
8633;DHT22;4354;49.832;10.746;2022-12-11T14:39:55;-0.50;99.90
8633;DHT22;4354;49.832;10.746;2022-12-11T14:42:31;-0.50;99.90
8633;DHT22;4354;49.832;10.746;2022-12-11T14:45:07;-0.50;99.90
8633;DHT22;4354;49.832;10.746;2022-12-11T14:47:43;-0.60;99.90
8633;DHT22;4354;49.832;10.746;2022-12-11T14:50:13;-0.60;99.90
8633;DHT22;4354;49.832;10.746;2022-12-11T14:52:54;-0.60;99.90
8633;DHT22;4354;49.832;10.746;2022-12-11T14:55:27;-0.60;99.90
8633;DHT22;4354;49.832;10.746;2022-12-11T14:58:02;-0.70;99.90
8633;DHT22;4354;49.832;10.746;2022-12-11T15:00:34;-0.70;99.90
8633;DHT22;4354;49.832;10.746;2022-12-11T15:05:32;-0.80;99.90
8633;DHT22;4354;49.832;10.746;2022-12-11T15:10:40;-1.00;99.90
8633;DHT22;4354;49.832;10.746;2022-12-11T15:13:08;-1.00;99.90
8633;DHT22;4354;49.832;10.746;2022-12-11T15:15:45;-1.10;99.90
8633;DHT22;4354;49.832;10.746;2022-12-11T15:18:39;-1.10;99.90
8633;DHT22;4354;49.832;10.746;2022-12-11T15:21:09;-1.10;99.90
8633;DHT22;4354;49.832;10.746;2022-12-11T15:26:15;-1.10;99.90
8633;DHT22;4354;49.832;10.746;2022-12-11T15:28:42;-1.10;99.90
8633;DHT22;4354;49.832;10.746;2022-12-11T15:31:27;-1.10;99.90
8633;DHT22;4354;49.832;10.746;2022-12-11T15:33:54;-1.20;99.90
8633;DHT22;4354;49.832;10.746;2022-12-11T15:36:31;-1.20;99.90
8633;DHT22;4354;49.832;10.746;2022-12-11T15:38:58;-1.20;99.90
8633;DHT22;4354;49.832;10.746;2022-12-11T15:41:26;-1.20;99.90
8633;DHT22;4354;49.832;10.746;2022-12-11T15:43:55;-1.20;99.90
8633;DHT22;4354;49.832;10.746;2022-12-11T15:46:25;-1.10;99.90
8633;DHT22;4354;49.832;10.746;2022-12-11T15:48:52;-1.10;99.90
8633;DHT22;4354;49.832;10.746;2022-12-11T15:51:19;-1.20;99.90
8633;DHT22;4354;49.832;10.746;2022-12-11T15:53:45;-1.20;99.90
8633;DHT22;4354;49.832;10.746;2022-12-11T15:56:14;-1.10;99.90
8633;DHT22;4354;49.832;10.746;2022-12-11T15:58:43;-1.10;99.90
8633;DHT22;4354;49.832;10.746;2022-12-11T16:01:10;-1.10;99.90
8633;DHT22;4354;49.832;10.746;2022-12-11T16:03:37;-1.10;99.90
8633;DHT22;4354;49.832;10.746;2022-12-11T16:06:04;-1.10;99.90
8633;DHT22;4354;49.832;10.746;2022-12-11T16:08:31;-1.10;99.90
8633;DHT22;4354;49.832;10.746;2022-12-11T16:10:58;-1.10;99.90
8633;DHT22;4354;49.832;10.746;2022-12-11T16:13:24;-1.10;99.90
8633;DHT22;4354;49.832;10.746;2022-12-11T16:15:52;-1.20;99.90
8633;DHT22;4354;49.832;10.746;2022-12-11T16:18:22;-1.10;99.90
8633;DHT22;4354;49.832;10.746;2022-12-11T16:20:49;-1.10;99.90
8633;DHT22;4354;49.832;10.746;2022-12-11T16:23:17;-1.10;99.90
8633;DHT22;4354;49.832;10.746;2022-12-11T16:25:44;-1.20;99.90
8633;DHT22;4354;49.832;10.746;2022-12-11T16:28:14;-1.10;99.90
8633;DHT22;4354;49.832;10.746;2022-12-11T16:30:41;-1.20;99.90
8633;DHT22;4354;49.832;10.746;2022-12-11T16:33:10;-1.10;99.90
8633;DHT22;4354;49.832;10.746;2022-12-11T16:35:39;-1.20;99.90
8633;DHT22;4354;49.832;10.746;2022-12-11T16:38:07;-1.20;99.90
8633;DHT22;4354;49.832;10.746;2022-12-11T16:40:35;-1.20;99.90
8633;DHT22;4354;49.832;10.746;2022-12-11T16:43:03;-1.20;99.90
8633;DHT22;4354;49.832;10.746;2022-12-11T16:45:31;-1.20;99.90
8633;DHT22;4354;49.832;10.746;2022-12-11T16:48:01;-1.20;99.90
8633;DHT22;4354;49.832;10.746;2022-12-11T16:50:28;-1.20;99.90
8633;DHT22;4354;49.832;10.746;2022-12-11T16:52:56;-1.20;99.90
8633;DHT22;4354;49.832;10.746;2022-12-11T16:55:22;-1.10;99.90
8633;DHT22;4354;49.832;10.746;2022-12-11T16:57:49;-1.20;99.90
8633;DHT22;4354;49.832;10.746;2022-12-11T17:00:16;-1.20;99.90
8633;DHT22;4354;49.832;10.746;2022-12-11T17:02:43;-1.20;99.90
8633;DHT22;4354;49.832;10.746;2022-12-11T17:05:10;-1.20;99.90
8633;DHT22;4354;49.832;10.746;2022-12-11T17:07:37;-1.20;99.90
8633;DHT22;4354;49.832;10.746;2022-12-11T17:10:04;-1.20;99.90
8633;DHT22;4354;49.832;10.746;2022-12-11T17:12:31;-1.20;99.90
8633;DHT22;4354;49.832;10.746;2022-12-11T17:14:58;-1.20;99.90
8633;DHT22;4354;49.832;10.746;2022-12-11T17:17:25;-1.20;99.90
8633;DHT22;4354;49.832;10.746;2022-12-11T17:19:52;-1.20;99.90
8633;DHT22;4354;49.832;10.746;2022-12-11T17:22:19;-1.30;99.90
8633;DHT22;4354;49.832;10.746;2022-12-11T17:24:46;-1.30;99.90
8633;DHT22;4354;49.832;10.746;2022-12-11T17:27:13;-1.30;99.90
8633;DHT22;4354;49.832;10.746;2022-12-11T17:29:39;-1.20;99.90
8633;DHT22;4354;49.832;10.746;2022-12-11T17:32:06;-1.20;99.90
8633;DHT22;4354;49.832;10.746;2022-12-11T17:34:33;-1.20;99.90
8633;DHT22;4354;49.832;10.746;2022-12-11T17:37:04;-1.20;99.90
8633;DHT22;4354;49.832;10.746;2022-12-11T17:39:31;-1.20;99.90
8633;DHT22;4354;49.832;10.746;2022-12-11T17:41:58;-1.20;99.90
8633;DHT22;4354;49.832;10.746;2022-12-11T17:44:25;-1.10;99.90
8633;DHT22;4354;49.832;10.746;2022-12-11T17:46:52;-1.10;99.90